Time;durP1;ratioP1;P1;durP2;ratioP2;P2;SDS_P1;SDS_P2;PMS_P1;PMS_P2;Temp;Humidity;BMP_temperature;BMP_pressure;BME280_temperature;BME280_humidity;BME280_pressure;Samples;Min_cycle;Max_cycle;Signal;HPM_P1;HPM_P2
2022/04/10 00:01:41;;;;;;;9.68;4.10;;;;;;;16.89;95.14;99898.31;5053593;28;20021;-78
2022/04/10 00:04:27;;;;;;;7.95;4.05;;;;;;;16.73;97.09;99897.47;5052981;28;20035;-78
2022/04/10 00:07:13;;;;;;;6.55;4.07;;;;;;;17.06;94.82;99891.13;5056752;28;20078;-78
2022/04/10 00:09:59;;;;;;;6.45;4.18;;;;;;;17.12;94.79;99897.88;5055444;28;20032;-78
2022/04/10 00:12:45;;;;;;;6.85;3.95;;;;;;;16.95;97.70;99895.31;5055983;28;20035;-78
2022/04/10 00:15:31;;;;;;;10.27;4.22;;;;;;;17.23;93.86;99890.16;5057191;28;20021;-78
2022/04/10 00:18:16;;;;;;;7.07;4.05;;;;;;;17.10;93.36;99892.66;5056223;28;20029;-78
2022/04/10 00:21:03;;;;;;;7.38;3.90;;;;;;;17.04;93.53;99884.22;5056354;28;20104;-78
2022/04/10 00:23:49;;;;;;;7.10;4.40;;;;;;;17.00;92.10;99882.69;5055201;28;20036;-79
2022/04/10 00:26:34;;;;;;;8.77;3.65;;;;;;;17.10;91.45;99881.22;5061618;28;20102;-77
2022/04/10 00:29:20;;;;;;;7.63;4.10;;;;;;;16.98;91.19;99881.91;5068220;28;20052;-79
2022/04/10 00:32:06;;;;;;;9.13;3.70;;;;;;;16.79;91.19;99875.94;5057330;28;20021;-78
2022/04/10 00:34:52;;;;;;;8.50;4.25;;;;;;;17.11;89.73;99880.25;5056502;28;20361;-79
2022/04/10 00:37:39;;;;;;;9.43;3.85;;;;;;;16.87;91.00;99885.16;5056497;28;20051;-79
2022/04/10 00:40:25;;;;;;;6.38;3.90;;;;;;;17.00;90.56;99890.63;5056357;28;20033;-77
2022/04/10 00:43:11;;;;;;;7.82;4.00;;;;;;;17.15;89.47;99895.03;5055555;28;20040;-78
2022/04/10 00:46:01;;;;;;;9.10;4.55;;;;;;;16.89;91.04;99887.72;5056295;28;20055;-79
2022/04/10 00:48:48;;;;;;;9.25;4.10;;;;;;;16.92;93.20;99892.84;5037420;28;20045;-77
2022/04/10 00:51:40;;;;;;;7.28;3.90;;;;;;;17.29;89.25;99888.03;5035214;28;20449;-78
2022/04/10 00:54:26;;;;;;;10.23;4.10;;;;;;;16.76;92.30;99884.06;5036653;28;20025;-79
2022/04/10 00:57:13;;;;;;;9.20;3.90;;;;;;;17.01;91.21;99879.97;5035168;28;20131;-79
2022/04/10 00:59:58;;;;;;;8.07;4.30;;;;;;;16.79;93.13;99866.22;5035419;28;20033;-78
2022/04/10 01:02:44;;;;;;;11.10;4.78;;;;;;;16.74;93.12;99873.56;5035392;28;20045;-78
2022/04/10 01:05:30;;;;;;;8.98;3.97;;;;;;;16.71;93.20;99864.94;5035226;28;20056;-79
2022/04/10 01:08:16;;;;;;;8.68;4.00;;;;;;;16.87;92.56;99868.41;5035689;28;20474;-79
2022/04/10 01:11:02;;;;;;;9.68;4.28;;;;;;;16.93;91.17;99862.81;5034614;28;20057;-78
2022/04/10 01:13:48;;;;;;;9.95;4.15;;;;;;;16.50;94.95;99869.63;5036051;28;20477;-78
2022/04/10 01:16:35;;;;;;;9.27;4.20;;;;;;;16.72;94.36;99862.22;5034943;28;20044;-79
2022/04/10 01:19:21;;;;;;;12.38;4.68;;;;;;;16.58;95.35;99856.84;5034439;28;20068;-78
2022/04/10 01:22:09;;;;;;;9.90;4.50;;;;;;;16.78;93.98;99867.16;5034114;28;20060;-78
2022/04/10 01:24:55;;;;;;;7.72;3.88;;;;;;;16.83;94.26;99872.19;5035713;28;20361;-78
2022/04/10 01:27:41;;;;;;;9.98;4.05;;;;;;;16.58;97.04;99875.34;5035485;28;20025;-78
2022/04/10 01:30:27;;;;;;;8.60;4.07;;;;;;;16.54;98.51;99878.25;5021214;28;20105;-78
2022/04/10 01:33:13;;;;;;;8.02;4.00;;;;;;;16.10;100.00;99870.03;5034324;28;20032;-79
2022/04/10 01:35:59;;;;;;;10.43;4.30;;;;;;;16.35;100.00;99875.72;5035229;28;20033;-77
2022/04/10 01:38:46;;;;;;;8.35;4.20;;;;;;;16.43;100.00;99876.19;5034419;28;20033;-79
2022/04/10 01:41:34;;;;;;;8.45;4.07;;;;;;;16.02;100.00;99876.66;5020275;28;20438;-80
2022/04/10 01:44:20;;;;;;;8.65;4.03;;;;;;;16.29;100.00;99875.19;5020509;28;20123;-79
2022/04/10 01:47:06;;;;;;;7.22;4.38;;;;;;;16.08;100.00;99879.00;5032279;28;20052;-79
2022/04/10 01:49:51;;;;;;;10.27;4.28;;;;;;;15.94;100.00;99881.50;5054755;28;20112;-78
2022/04/10 01:52:37;;;;;;;11.00;4.18;;;;;;;15.95;100.00;99873.50;5052719;28;20082;-77
2022/04/10 01:55:23;;;;;;;9.05;4.00;;;;;;;15.48;100.00;99879.53;5054523;28;20021;-78
2022/04/10 01:58:09;;;;;;;9.30;4.03;;;;;;;15.59;100.00;99885.97;5053394;28;20029;-79
2022/04/10 02:00:55;;;;;;;10.73;4.38;;;;;;;15.67;100.00;99877.66;5055690;28;20128;-79
2022/04/10 02:03:41;;;;;;;10.57;4.32;;;;;;;15.89;100.00;99878.25;5053992;28;20029;-78
2022/04/10 02:06:27;;;;;;;8.43;3.60;;;;;;;15.73;100.00;99879.97;5054488;28;20110;-78
2022/04/10 02:09:13;;;;;;;11.45;4.22;;;;;;;15.50;100.00;99867.94;5053213;28;20028;-78
2022/04/10 02:11:58;;;;;;;7.47;4.05;;;;;;;15.61;100.00;99870.91;5053312;28;20028;-78
2022/04/10 02:14:44;;;;;;;11.13;4.20;;;;;;;15.46;100.00;99884.88;5055398;28;20016;-78
2022/04/10 02:17:30;;;;;;;8.15;3.88;;;;;;;15.68;100.00;99889.94;5054354;28;20040;-78
2022/04/10 02:20:15;;;;;;;7.72;3.80;;;;;;;15.38;100.00;99896.78;5055270;28;20037;-79
2022/04/10 02:23:01;;;;;;;10.27;4.15;;;;;;;15.58;100.00;99894.81;5053970;28;20442;-77
2022/04/10 02:25:47;;;;;;;8.55;3.83;;;;;;;15.49;100.00;99897.06;5053709;28;20115;-78
2022/04/10 02:28:33;;;;;;;10.35;4.53;;;;;;;15.57;100.00;99890.47;5053088;28;20048;-78
2022/04/10 02:31:18;;;;;;;10.23;3.80;;;;;;;15.53;100.00;99906.53;5054471;28;20151;-78
2022/04/10 02:34:04;;;;;;;5.97;3.58;;;;;;;15.70;100.00;99896.84;5054097;28;20031;-78
2022/04/10 02:36:50;;;;;;;10.48;4.20;;;;;;;15.69;100.00;99886.34;5053133;28;20451;-78
2022/04/10 02:39:36;;;;;;;10.55;3.65;;;;;;;15.46;100.00;99891.94;5054607;28;20487;-78
2022/04/10 02:42:21;;;;;;;11.65;4.10;;;;;;;15.44;100.00;99883.25;5068495;28;20039;-78
2022/04/10 02:45:08;;;;;;;8.43;3.85;;;;;;;15.32;100.00;99883.84;5053959;28;20029;-78
2022/04/10 02:47:53;;;;;;;9.00;4.25;;;;;;;15.11;100.00;99892.81;5054111;28;20052;-79
2022/04/10 02:50:40;;;;;;;8.45;4.40;;;;;;;15.08;100.00;99893.81;5053954;28;20024;-78
2022/04/10 02:53:25;;;;;;;10.30;4.03;;;;;;;15.05;100.00;99898.38;5053303;28;20033;-78
2022/04/10 02:56:11;;;;;;;9.32;4.20;;;;;;;14.95;100.00;99894.47;5052276;28;20453;-77
2022/04/10 02:58:57;;;;;;;9.27;4.22;;;;;;;14.93;100.00;99904.22;5053651;28;20515;-78
2022/04/10 03:01:43;;;;;;;9.82;4.20;;;;;;;14.87;100.00;99904.53;5053884;28;20412;-78
2022/04/10 03:04:28;;;;;;;6.85;4.00;;;;;;;14.87;100.00;99901.91;5054140;28;20033;-79
2022/04/10 03:07:14;;;;;;;8.45;4.63;;;;;;;15.06;100.00;99908.00;5053179;28;20056;-78
2022/04/10 03:10:00;;;;;;;9.32;4.57;;;;;;;15.00;100.00;99901.25;5053821;28;20025;-79
2022/04/10 03:12:46;;;;;;;6.78;4.30;;;;;;;15.02;100.00;99899.38;5053627;28;20032;-78
2022/04/10 03:15:31;;;;;;;7.53;4.40;;;;;;;14.98;100.00;99889.91;5053578;28;20537;-76
2022/04/10 03:18:17;;;;;;;10.45;4.15;;;;;;;15.01;100.00;99907.34;5053234;28;20136;-78
2022/04/10 03:21:04;;;;;;;8.70;5.07;;;;;;;14.81;100.00;99903.06;5053830;28;20098;-78
2022/04/10 03:23:49;;;;;;;7.13;4.40;;;;;;;15.07;100.00;99907.09;5053465;28;20468;-78
2022/04/10 03:26:35;;;;;;;5.50;4.15;;;;;;;14.97;100.00;99916.34;5053815;28;20381;-78
2022/04/10 03:29:21;;;;;;;9.63;4.32;;;;;;;14.84;100.00;99931.91;5052250;28;20057;-78
2022/04/10 03:32:07;;;;;;;9.25;4.90;;;;;;;14.51;100.00;99936.13;5053590;28;20032;-78
2022/04/10 03:34:53;;;;;;;8.00;4.22;;;;;;;14.71;100.00;99929.00;5052024;28;20028;-78
2022/04/10 03:37:39;;;;;;;10.30;4.85;;;;;;;14.69;100.00;99924.72;5053664;28;20082;-78
2022/04/10 03:40:24;;;;;;;8.32;4.72;;;;;;;14.52;100.00;99920.22;5052975;28;20041;-79
2022/04/10 03:43:11;;;;;;;7.22;4.50;;;;;;;14.47;100.00;99919.56;5058071;28;20090;-78
2022/04/10 03:45:57;;;;;;;8.02;4.85;;;;;;;14.40;100.00;99909.41;5057103;28;20028;-78
2022/04/10 03:48:43;;;;;;;9.75;5.15;;;;;;;14.44;100.00;99900.44;5057356;28;20041;-77
2022/04/10 03:51:28;;;;;;;5.18;4.60;;;;;;;14.29;100.00;99888.81;5057197;28;20031;-78
2022/04/10 03:54:14;;;;;;;6.25;4.70;;;;;;;14.23;100.00;99885.59;5056361;28;20408;-78
2022/04/10 03:57:00;;;;;;;6.97;4.97;;;;;;;14.16;100.00;99897.31;5057189;28;20103;-78
2022/04/10 03:59:46;;;;;;;6.45;4.90;;;;;;;14.25;100.00;99905.69;5055806;28;20103;-78
2022/04/10 04:02:31;;;;;;;9.20;5.53;;;;;;;14.15;100.00;99909.59;5057294;28;20028;-77
2022/04/10 04:05:17;;;;;;;7.03;5.32;;;;;;;14.13;100.00;99936.94;5057515;28;20025;-78
2022/04/10 04:08:04;;;;;;;10.13;5.38;;;;;;;13.81;100.00;99919.06;5056664;28;20468;-78
2022/04/10 04:10:50;;;;;;;7.15;5.25;;;;;;;13.80;100.00;99902.44;5055334;28;20056;-78
2022/04/10 04:13:40;;;;;;;8.43;5.70;;;;;;;13.95;100.00;99945.66;5057049;28;20377;-78
2022/04/10 04:16:26;;;;;;;9.02;5.07;;;;;;;14.01;100.00;99927.81;5056614;28;20120;-78
2022/04/10 04:19:13;;;;;;;11.43;5.88;;;;;;;14.04;100.00;99959.28;5055461;28;20465;-78
2022/04/10 04:21:58;;;;;;;9.60;5.45;;;;;;;13.89;100.00;99954.69;5056172;28;20037;-78
2022/04/10 04:24:44;;;;;;;10.00;6.30;;;;;;;14.06;100.00;99960.06;5055302;28;20403;-78
2022/04/10 04:27:30;;;;;;;8.85;5.90;;;;;;;14.24;100.00;99974.25;5056650;28;20025;-78
2022/04/10 04:30:15;;;;;;;10.88;6.15;;;;;;;14.13;100.00;99987.84;5056881;28;20033;-78
2022/04/10 04:33:01;;;;;;;7.78;5.50;;;;;;;13.89;100.00;99995.94;5055065;28;20094;-78
2022/04/10 04:35:47;;;;;;;8.00;5.40;;;;;;;14.22;100.00;99994.53;5055769;28;20021;-78
2022/04/10 04:38:33;;;;;;;11.32;6.05;;;;;;;13.99;100.00;100006.00;5056606;28;20033;-77
2022/04/10 04:41:19;;;;;;;5.70;5.00;;;;;;;13.98;100.00;100017.47;5056653;28;20044;-78
2022/04/10 04:44:05;;;;;;;6.55;5.22;;;;;;;14.14;100.00;100008.00;5056321;28;20029;-78
2022/04/10 04:46:51;;;;;;;7.82;4.97;;;;;;;14.20;100.00;100007.72;5055728;28;20057;-78
2022/04/10 04:49:36;;;;;;;7.20;5.63;;;;;;;14.36;100.00;100010.59;5056275;28;20025;-78
2022/04/10 04:52:22;;;;;;;9.80;5.10;;;;;;;14.39;100.00;100013.09;5055179;28;20058;-78
2022/04/10 04:55:08;;;;;;;8.80;6.03;;;;;;;14.32;100.00;100006.38;5066215;28;20025;-75
2022/04/10 04:57:55;;;;;;;8.48;5.55;;;;;;;14.41;100.00;100017.38;5066324;28;20044;-79
2022/04/10 05:00:41;;;;;;;7.75;5.78;;;;;;;14.39;100.00;100021.00;5055299;28;20468;-79
2022/04/10 05:03:26;;;;;;;6.35;5.47;;;;;;;14.70;100.00;100026.63;5054241;28;20036;-78
2022/04/10 05:06:12;;;;;;;7.60;5.80;;;;;;;14.55;100.00;100020.25;5056500;28;20025;-78
2022/04/10 05:08:58;;;;;;;8.70;5.57;;;;;;;14.73;100.00;100015.94;5055462;28;20098;-77
2022/04/10 05:11:43;;;;;;;10.73;5.28;;;;;;;14.75;100.00;100016.69;5056408;28;20024;-78
2022/04/10 05:14:29;;;;;;;10.27;5.65;;;;;;;14.44;100.00;100030.41;5055829;28;20039;-79
2022/04/10 05:17:15;;;;;;;7.70;5.05;;;;;;;15.13;100.00;100029.00;5063778;28;20008;-78
2022/04/10 05:20:03;;;;;;;10.80;5.72;;;;;;;14.92;100.00;100018.59;5055856;28;20106;-78
2022/04/10 05:22:49;;;;;;;10.35;5.88;;;;;;;15.07;100.00;100031.91;5054651;28;20059;-77
2022/04/10 05:25:36;;;;;;;8.13;5.40;;;;;;;14.97;100.00;100042.97;5056409;28;20032;-78
2022/04/10 05:28:22;;;;;;;7.25;5.20;;;;;;;15.12;100.00;100040.50;5069769;28;20029;-77
2022/04/10 05:31:07;;;;;;;8.82;5.90;;;;;;;15.24;100.00;100041.69;5056299;28;20048;-78
2022/04/10 05:33:53;;;;;;;6.65;5.65;;;;;;;15.43;100.00;100037.28;5056174;28;20414;-78
2022/04/10 05:36:39;;;;;;;7.13;5.38;;;;;;;15.25;100.00;100032.84;5056867;28;20033;-78
2022/04/10 05:39:25;;;;;;;6.93;6.22;;;;;;;15.16;100.00;100038.56;5055554;28;20080;-76
2022/04/10 05:42:11;;;;;;;7.30;5.20;;;;;;;15.15;100.00;100042.13;5055405;28;20089;-78
2022/04/10 05:45:03;;;;;;;7.07;5.78;;;;;;;14.88;100.00;100048.66;5055642;28;20029;-78
2022/04/10 05:47:49;;;;;;;7.25;6.05;;;;;;;15.01;100.00;100060.34;5055744;28;20132;-79
2022/04/10 05:50:35;;;;;;;6.93;6.20;;;;;;;14.92;100.00;100060.78;5057396;28;20032;-78
2022/04/10 05:53:21;;;;;;;7.65;6.15;;;;;;;14.72;100.00;100062.53;5055783;28;20024;-78
2022/04/10 05:56:06;;;;;;;7.60;6.90;;;;;;;14.66;100.00;100060.19;5056902;28;20044;-78
2022/04/10 05:58:52;;;;;;;9.18;6.53;;;;;;;15.08;100.00;100072.34;5055226;28;20033;-77
2022/04/10 06:01:38;;;;;;;8.88;7.43;;;;;;;14.77;100.00;100063.19;5054971;28;20373;-77
2022/04/10 06:04:24;;;;;;;8.95;7.70;;;;;;;14.48;100.00;100054.88;5054614;28;20108;-78
2022/04/10 06:07:09;;;;;;;14.57;7.82;;;;;;;14.50;100.00;100064.41;5055118;28;20110;-77
2022/04/10 06:09:55;;;;;;;8.02;7.10;;;;;;;14.70;100.00;100068.78;5054979;28;20054;-78
2022/04/10 06:12:41;;;;;;;8.43;7.07;;;;;;;15.06;100.00;100071.59;5055096;28;20024;-78
2022/04/10 06:15:27;;;;;;;8.48;7.60;;;;;;;15.51;100.00;100075.56;5054568;28;20029;-78
2022/04/10 06:18:13;;;;;;;7.95;7.15;;;;;;;15.10;100.00;100084.53;5054419;28;20033;-78
2022/04/10 06:20:59;;;;;;;12.05;7.07;;;;;;;14.64;100.00;100080.47;5054518;28;20035;-78
2022/04/10 06:23:44;;;;;;;9.52;6.65;;;;;;;14.55;100.00;100080.88;5053825;28;20099;-77
2022/04/10 06:26:31;;;;;;;8.57;7.10;;;;;;;14.94;100.00;100080.88;5053715;28;20029;-78
2022/04/10 06:29:17;;;;;;;8.05;6.63;;;;;;;14.61;100.00;100083.25;5054109;28;20036;-78
2022/04/10 06:32:03;;;;;;;9.55;6.75;;;;;;;14.80;100.00;100076.22;5053579;28;20041;-78
2022/04/10 06:34:49;;;;;;;7.93;7.10;;;;;;;14.83;100.00;100080.50;5053122;28;20024;-78
2022/04/10 06:37:36;;;;;;;10.88;7.45;;;;;;;15.03;100.00;100092.81;5054707;28;20415;-77
2022/04/10 06:40:21;;;;;;;10.20;6.90;;;;;;;14.98;100.00;100090.38;5053457;28;20056;-77
2022/04/10 06:43:08;;;;;;;9.43;7.25;;;;;;;14.80;100.00;100099.97;5054831;28;20033;-78
2022/04/10 06:45:53;;;;;;;9.90;7.65;;;;;;;14.46;100.00;100097.09;5053539;28;20056;-77
2022/04/10 06:48:39;;;;;;;11.70;7.85;;;;;;;14.43;100.00;100110.41;5053305;28;20041;-78
2022/04/10 06:51:25;;;;;;;8.07;7.28;;;;;;;14.56;100.00;100110.75;5053576;28;20448;-77
2022/04/10 06:54:11;;;;;;;11.23;7.88;;;;;;;14.69;100.00;100125.97;5053579;28;20031;-78
2022/04/10 06:56:56;;;;;;;10.27;7.50;;;;;;;14.62;100.00;100127.16;5053907;28;20416;-78
2022/04/10 06:59:42;;;;;;;10.10;7.22;;;;;;;14.52;100.00;100123.19;5054301;28;20040;-79
2022/04/10 07:02:28;;;;;;;10.75;7.38;;;;;;;14.46;100.00;100127.84;5053183;28;20061;-77
2022/04/10 07:05:14;;;;;;;8.23;7.07;;;;;;;14.35;100.00;100109.88;5053167;28;20052;-78
2022/04/10 07:07:59;;;;;;;9.63;7.38;;;;;;;14.64;100.00;100114.75;5055549;28;20017;-76
2022/04/10 07:10:45;;;;;;;11.55;7.22;;;;;;;14.80;100.00;100125.50;5069935;28;20021;-78
2022/04/10 07:13:31;;;;;;;12.45;7.85;;;;;;;14.92;100.00;100126.72;5054317;28;20040;-78
2022/04/10 07:16:17;;;;;;;12.48;8.07;;;;;;;14.51;100.00;100110.94;5057359;28;20040;-78
2022/04/10 07:19:02;;;;;;;13.48;8.40;;;;;;;14.42;100.00;100097.28;5057757;28;20043;-78
2022/04/10 07:24:52;;;;;;;12.32;7.85;;;;;;;14.79;100.00;100131.66;5058441;28;20033;-78
2022/04/10 07:27:38;;;;;;;12.82;8.70;;;;;;;14.61;100.00;100141.25;5058972;28;20116;-78
2022/04/10 07:30:24;;;;;;;10.85;8.77;;;;;;;14.11;100.00;100134.56;5057865;28;20377;-76
2022/04/10 07:33:10;;;;;;;11.57;9.27;;;;;;;14.06;100.00;100112.84;5057741;28;20020;-76
2022/04/10 07:35:56;;;;;;;9.68;8.68;;;;;;;14.28;100.00;100142.66;5058956;28;20370;-79
2022/04/10 07:38:41;;;;;;;11.30;8.15;;;;;;;14.08;100.00;100161.06;5055982;28;20029;-79
2022/04/10 07:41:27;;;;;;;11.27;8.50;;;;;;;14.24;100.00;100169.22;5057750;28;20032;-78
2022/04/10 07:44:13;;;;;;;11.98;8.63;;;;;;;14.11;100.00;100170.63;5058186;28;20025;-78
2022/04/10 07:50:03;;;;;;;11.80;8.20;;;;;;;14.30;100.00;100196.16;5058244;28;20036;-78
2022/04/10 07:52:49;;;;;;;9.40;8.40;;;;;;;13.99;100.00;100197.44;5057662;28;20094;-78
2022/04/10 07:55:35;;;;;;;12.32;10.05;;;;;;;13.98;100.00;100180.78;5057183;28;20021;-77
2022/04/10 07:58:21;;;;;;;11.73;8.75;;;;;;;13.48;100.00;100178.38;5059058;28;20056;-77
2022/04/10 08:01:06;;;;;;;10.35;8.63;;;;;;;13.59;100.00;100179.69;5055672;28;20120;-76
2022/04/10 08:03:53;;;;;;;11.77;9.00;;;;;;;13.50;100.00;100182.66;5056418;28;20036;-78
2022/04/10 08:06:39;;;;;;;10.52;9.30;;;;;;;13.54;100.00;100192.16;5055992;28;20021;-76
2022/04/10 08:09:25;;;;;;;15.30;10.18;;;;;;;13.60;100.00;100191.06;5056361;28;20029;-77
2022/04/10 08:12:10;;;;;;;13.73;9.27;;;;;;;13.63;100.00;100196.22;5058728;28;20036;-76
2022/04/10 08:14:56;;;;;;;13.32;10.07;;;;;;;13.80;100.00;100194.66;5056500;28;20025;-74
2022/04/10 08:17:45;;;;;;;13.23;8.25;;;;;;;13.84;100.00;100185.72;5055931;28;20028;-78
2022/04/10 08:20:31;;;;;;;9.82;8.85;;;;;;;13.63;100.00;100188.34;5056540;28;20445;-77
2022/04/10 08:23:17;;;;;;;9.98;8.30;;;;;;;13.72;100.00;100209.91;5056009;28;20041;-75
2022/04/10 08:26:03;;;;;;;9.90;8.52;;;;;;;13.83;100.00;100196.31;5055935;28;20414;-77
2022/04/10 08:28:48;;;;;;;10.40;8.23;;;;;;;13.74;100.00;100183.50;5056007;28;20044;-74
2022/04/10 08:31:34;;;;;;;12.82;10.32;;;;;;;13.39;100.00;100182.19;5056432;28;20065;-76
2022/04/10 08:34:20;;;;;;;11.65;9.18;;;;;;;13.69;100.00;100178.41;5056971;28;20025;-77
2022/04/10 08:37:33;;;;;;;8.35;7.40;;;;;;;13.53;100.00;100176.41;5055207;28;20033;-82
2022/04/10 08:40:19;;;;;;;8.73;7.82;;;;;;;13.29;100.00;100180.84;5058612;28;20024;-80
2022/04/10 08:43:06;;;;;;;7.60;6.80;;;;;;;13.17;100.00;100193.56;5057948;28;20029;-77
2022/04/10 08:45:54;;;;;;;11.27;7.50;;;;;;;13.18;100.00;100206.66;5055115;28;20029;-76
2022/04/10 08:48:41;;;;;;;9.57;7.80;;;;;;;13.00;100.00;100167.91;5057357;28;20067;-76
2022/04/10 08:51:29;;;;;;;11.70;8.73;;;;;;;13.35;100.00;100192.91;5056484;28;20079;-78
2022/04/10 08:54:15;;;;;;;10.98;8.10;;;;;;;13.38;100.00;100196.28;5056671;28;20490;-78
2022/04/10 08:57:02;;;;;;;8.82;7.45;;;;;;;12.81;100.00;100208.84;5056124;28;20067;-79
2022/04/10 08:59:48;;;;;;;9.30;8.30;;;;;;;13.06;100.00;100219.41;5055948;28;20438;-71
2022/04/10 09:02:46;;;;;;;9.93;8.00;;;;;;;13.03;100.00;100196.69;5055839;28;20059;-72
2022/04/10 09:05:32;;;;;;;9.52;7.10;;;;;;;13.14;100.00;100202.44;5055915;28;20033;-73
2022/04/10 09:08:18;;;;;;;9.30;7.47;;;;;;;12.86;100.00;100214.81;5055399;28;20087;-71
2022/04/10 09:11:11;;;;;;;9.40;7.65;;;;;;;13.32;100.00;100219.31;5056023;28;20043;-72
2022/04/10 09:13:59;;;;;;;10.38;7.60;;;;;;;13.54;100.00;100212.34;5056113;28;20068;-72
2022/04/10 09:16:45;;;;;;;11.80;9.43;;;;;;;13.60;100.00;100213.00;5055560;28;20450;-71
2022/04/10 09:19:48;;;;;;;19.42;10.88;;;;;;;13.65;100.00;100223.34;5055601;28;20115;-71
2022/04/10 09:22:38;;;;;;;10.85;7.85;;;;;;;13.22;100.00;100247.72;5068307;28;20036;-71
2022/04/10 09:25:23;;;;;;;14.45;8.32;;;;;;;13.14;100.00;100241.88;5055710;28;20075;-72
2022/04/10 09:28:09;;;;;;;12.20;8.45;;;;;;;13.16;100.00;100245.34;5055433;28;20029;-73
2022/04/10 09:30:55;;;;;;;10.02;8.77;;;;;;;13.18;100.00;100243.50;5056019;28;20032;-70
2022/04/10 09:33:50;;;;;;;13.70;8.68;;;;;;;13.28;100.00;100236.13;5055466;28;20026;-72
2022/04/10 09:36:46;;;;;;;14.00;9.98;;;;;;;12.24;100.00;100218.69;5055444;28;20036;-71
2022/04/10 09:39:33;;;;;;;14.48;11.20;;;;;;;12.68;100.00;100198.81;5054158;28;20120;-72
2022/04/10 09:42:31;;;;;;;13.13;11.07;;;;;;;12.64;100.00;100190.19;5054417;28;20342;-72
2022/04/10 09:45:29;;;;;;;13.00;10.88;;;;;;;12.83;100.00;100193.88;5055926;28;20408;-72
2022/04/10 09:48:21;;;;;;;16.10;12.77;;;;;;;12.84;100.00;100198.25;5055477;28;20420;-71
2022/04/10 09:51:11;;;;;;;17.05;12.02;;;;;;;12.81;100.00;100195.72;5055542;28;20040;-71
2022/04/10 09:54:03;;;;;;;13.20;10.55;;;;;;;12.53;100.00;100180.94;5054308;28;20086;-70
2022/04/10 09:56:49;;;;;;;13.80;10.80;;;;;;;12.71;100.00;100203.97;5055886;28;20336;-71
2022/04/10 09:59:38;;;;;;;11.27;9.68;;;;;;;12.54;100.00;100207.16;5055384;28;20368;-72
2022/04/10 10:02:26;;;;;;;11.57;10.05;;;;;;;12.68;100.00;100220.72;5055567;28;20028;-70
2022/04/10 10:05:12;;;;;;;11.57;9.75;;;;;;;12.75;100.00;100234.50;5055126;28;20044;-71
2022/04/10 10:08:02;;;;;;;12.02;10.25;;;;;;;12.85;100.00;100230.63;5054584;28;20055;-71
2022/04/10 10:10:48;;;;;;;13.27;9.73;;;;;;;12.57;100.00;100246.47;5055095;28;20100;-69
2022/04/10 10:13:37;;;;;;;11.93;9.60;;;;;;;12.28;100.00;100254.44;5054127;28;20064;-71
2022/04/10 10:16:23;;;;;;;12.20;9.18;;;;;;;12.25;100.00;100261.53;5053358;28;20041;-71
2022/04/10 10:19:10;;;;;;;10.90;9.18;;;;;;;12.29;100.00;100269.28;5053350;28;20418;-69
2022/04/10 10:21:56;;;;;;;12.38;8.95;;;;;;;12.65;100.00;100286.50;5054373;28;20028;-70
2022/04/10 10:24:49;;;;;;;14.32;10.05;;;;;;;12.85;100.00;100278.81;5054158;28;20061;-70
2022/04/10 10:27:45;;;;;;;25.05;16.77;;;;;;;12.23;100.00;100279.13;5054287;28;20231;-70
2022/04/10 10:30:55;;;;;;;23.45;17.65;;;;;;;11.41;100.00;100280.66;5055524;28;20348;-70
2022/04/10 10:33:51;;;;;;;26.08;19.05;;;;;;;11.97;100.00;100273.81;5054726;28;20045;-71
2022/04/10 10:36:37;;;;;;;25.58;19.25;;;;;;;12.17;100.00;100259.16;5055076;28;20051;-70
2022/04/10 10:39:23;;;;;;;28.35;20.00;;;;;;;12.11;100.00;100264.63;5055417;28;20032;-71
2022/04/10 10:42:10;;;;;;;30.92;20.42;;;;;;;11.86;100.00;100268.03;5054192;28;20037;-70
2022/04/10 10:44:57;;;;;;;29.35;20.05;;;;;;;11.92;100.00;100268.72;5054204;28;20032;-71
2022/04/10 10:47:43;;;;;;;30.02;20.92;;;;;;;11.74;100.00;100273.66;5052703;28;20125;-70
2022/04/10 10:50:29;;;;;;;29.48;20.00;;;;;;;12.04;100.00;100288.47;5055342;28;20028;-72
2022/04/10 10:53:17;;;;;;;30.30;20.77;;;;;;;12.06;100.00;100281.41;5054528;28;20459;-70
2022/04/10 10:56:04;;;;;;;27.30;19.15;;;;;;;11.72;100.00;100284.19;5054111;28;20025;-71
2022/04/10 10:58:50;;;;;;;29.77;19.48;;;;;;;11.73;100.00;100280.66;5054266;28;20457;-69
2022/04/10 11:01:53;;;;;;;30.30;20.30;;;;;;;12.24;100.00;100275.59;5055044;28;20490;-70
2022/04/10 11:04:39;;;;;;;30.27;21.00;;;;;;;12.51;100.00;100291.38;5054373;28;20032;-71
2022/04/10 11:07:27;;;;;;;24.85;18.33;;;;;;;12.36;100.00;100293.59;5054482;28;20044;-71
2022/04/10 11:10:12;;;;;;;25.95;18.70;;;;;;;12.39;100.00;100298.75;5055091;28;20041;-70
2022/04/10 11:13:01;;;;;;;29.02;18.40;;;;;;;11.86;100.00;100304.78;5055190;28;20029;-71
2022/04/10 11:15:51;;;;;;;21.83;15.60;;;;;;;11.32;100.00;100301.03;5053007;28;20082;-71
2022/04/10 11:18:49;;;;;;;21.05;14.57;;;;;;;11.17;100.00;100297.06;5054324;28;20029;-70
2022/04/10 11:21:43;;;;;;;19.83;13.25;;;;;;;11.39;100.00;100294.72;5054226;28;20386;-69
2022/04/10 11:24:29;;;;;;;21.40;14.07;;;;;;;11.52;100.00;100302.22;5054643;28;20494;-72
2022/04/10 11:27:44;;;;;;;18.80;12.73;;;;;;;11.70;100.00;100299.09;5052641;28;20033;-70
2022/04/10 11:30:29;;;;;;;16.92;11.30;;;;;;;11.30;100.00;100303.72;5052735;28;20040;-70
2022/04/10 11:33:16;;;;;;;17.88;11.43;;;;;;;11.51;100.00;100300.50;5058300;28;20434;-69
2022/04/10 11:36:02;;;;;;;18.55;11.07;;;;;;;11.42;100.00;100298.16;5067163;28;20048;-71
2022/04/10 11:39:09;;;;;;;16.75;10.43;;;;;;;11.30;100.00;100297.59;5054673;28;20024;-73
2022/04/10 11:42:09;;;;;;;15.82;10.80;;;;;;;11.74;100.00;100305.13;5054937;28;20044;-77
2022/04/10 11:44:58;;;;;;;16.63;9.77;;;;;;;11.62;100.00;100302.84;5052842;28;20025;-77
2022/04/10 11:47:44;;;;;;;13.68;9.88;;;;;;;11.47;100.00;100292.75;5053504;28;20049;-78
2022/04/10 11:50:30;;;;;;;12.93;7.93;;;;;;;11.34;100.00;100283.50;5053209;28;20461;-76
2022/04/10 11:53:16;;;;;;;11.90;8.30;;;;;;;11.60;100.00;100291.50;5054432;28;20361;-77
2022/04/10 11:56:02;;;;;;;9.10;6.47;;;;;;;11.57;100.00;100279.31;5057982;28;20017;-77
2022/04/10 11:58:48;;;;;;;8.38;5.80;;;;;;;11.75;100.00;100275.34;5055452;28;20128;-77
2022/04/10 12:01:35;;;;;;;11.98;6.57;;;;;;;11.79;100.00;100276.97;5054916;28;20377;-77
2022/04/10 12:04:21;;;;;;;6.43;5.40;;;;;;;11.77;100.00;100279.66;5058042;28;20025;-77
2022/04/10 12:07:11;;;;;;;7.13;5.85;;;;;;;11.51;100.00;100279.53;5057016;28;20025;-76
2022/04/10 12:09:57;;;;;;;6.63;5.80;;;;;;;11.54;100.00;100279.41;5056503;28;20037;-78
2022/04/10 12:12:44;;;;;;;5.05;4.55;;;;;;;11.41;100.00;100279.81;5057767;28;20040;-78
2022/04/10 12:15:32;;;;;;;5.00;4.38;;;;;;;11.28;100.00;100283.66;5056918;28;20419;-75
2022/04/10 12:18:21;;;;;;;4.10;3.70;;;;;;;11.27;100.00;100282.81;5058733;28;20029;-77
2022/04/10 12:21:08;;;;;;;4.38;3.97;;;;;;;11.01;100.00;100282.63;5057276;28;20411;-76
2022/04/10 12:23:58;;;;;;;4.28;3.88;;;;;;;11.26;100.00;100290.72;5057290;28;20159;-77
2022/04/10 12:26:44;;;;;;;5.85;3.70;;;;;;;11.29;100.00;100280.16;5058430;28;20067;-78
2022/04/10 12:29:31;;;;;;;5.25;4.15;;;;;;;11.03;100.00;100278.22;5057985;28;20021;-78
2022/04/10 12:32:17;;;;;;;4.20;3.80;;;;;;;10.73;100.00;100279.00;5056735;28;20035;-78
2022/04/10 12:35:13;;;;;;;4.82;4.00;;;;;;;10.94;100.00;100275.84;5057543;28;20075;-77
2022/04/10 12:38:03;;;;;;;3.80;3.40;;;;;;;10.89;100.00;100271.63;5058336;28;20516;-76
2022/04/10 12:40:49;;;;;;;3.88;3.28;;;;;;;10.70;100.00;100268.63;5055703;28;20025;-77
2022/04/10 12:43:35;;;;;;;3.83;3.42;;;;;;;10.83;100.00;100270.03;5055928;28;20034;-77
2022/04/10 12:46:36;;;;;;;5.32;3.75;;;;;;;10.51;100.00;100283.06;5056622;28;20075;-77
2022/04/10 12:49:24;;;;;;;4.93;3.63;;;;;;;10.76;100.00;100271.06;5058726;28;20146;-76
2022/04/10 12:52:18;;;;;;;4.35;3.85;;;;;;;10.92;100.00;100285.50;5057299;28;20487;-78
2022/04/10 12:55:14;;;;;;;5.65;4.30;;;;;;;10.53;100.00;100283.84;5056994;28;20167;-77